EZY187 EGKK-ESGG
Flight info
| Callsign | EZY187 |
|---|---|
| Flight time | 1h 31m |
| Altitude | 37000 |
| Route | FRANE M604 GIVPO DCT LARGA DCT SOPTO DCT AAL N607 MAKUR |
| Aircraft | A320/M-SDE3FGHIRWY/LB1 |
Departure
| Time | 2026-05-06 18:05 |
|---|---|
| Airport | London Gatwick Airport (EGKK) |
Arrival
| Time | 2026-05-06 19:37 |
|---|---|
| Airport | Göteborg Landvetter Airport (ESGG) |
| Time | Latitude | Longitude | Altitude | Speed | Heading |
|---|---|---|---|---|---|
| 2026-05-06 17:17 | 51.15654 | -0.17793 | 214 ft | 0 kts | 167° |
| 2026-05-06 17:43 | 51.15669 | -0.17799 | 215 ft | 2 kts | 167° |
| 2026-05-06 17:43 | 51.15686 | -0.17805 | 215 ft | 2 kts | 167° |
| 2026-05-06 17:44 | 51.15702 | -0.17811 | 207 ft | 2 kts | 201° |
| 2026-05-06 17:44 | 51.15718 | -0.17799 | 214 ft | 2 kts | 230° |
| 2026-05-06 17:44 | 51.15722 | -0.17792 | 213 ft | 0 kts | 257° |
| 2026-05-06 17:45 | 51.15722 | -0.17794 | 214 ft | 2 kts | 256° |
| 2026-05-06 17:46 | 51.15706 | -0.17910 | 205 ft | 13 kts | 258° |
| 2026-05-06 17:46 | 51.15688 | -0.18047 | 213 ft | 12 kts | 258° |
| 2026-05-06 17:46 | 51.15671 | -0.18166 | 211 ft | 10 kts | 257° |
| 2026-05-06 17:46 | 51.15627 | -0.18235 | 211 ft | 12 kts | 181° |
| 2026-05-06 17:47 | 51.15519 | -0.18207 | 205 ft | 16 kts | 167° |
| 2026-05-06 17:47 | 51.15420 | -0.18157 | 209 ft | 14 kts | 163° |
| 2026-05-06 17:47 | 51.15328 | -0.18123 | 205 ft | 13 kts | 168° |
| 2026-05-06 17:47 | 51.15246 | -0.18100 | 205 ft | 11 kts | 175° |
| 2026-05-06 17:48 | 51.15201 | -0.18174 | 212 ft | 9 kts | 257° |
| 2026-05-06 17:48 | 51.15188 | -0.18266 | 205 ft | 8 kts | 257° |
| 2026-05-06 17:48 | 51.15182 | -0.18349 | 205 ft | 7 kts | 263° |
| 2026-05-06 17:48 | 51.15164 | -0.18489 | 208 ft | 18 kts | 258° |
| 2026-05-06 17:49 | 51.15139 | -0.18677 | 208 ft | 17 kts | 258° |
| 2026-05-06 17:49 | 51.15115 | -0.18853 | 216 ft | 15 kts | 257° |
| 2026-05-06 17:49 | 51.15093 | -0.19009 | 205 ft | 13 kts | 257° |
| 2026-05-06 17:49 | 51.15072 | -0.19165 | 214 ft | 20 kts | 257° |
| 2026-05-06 17:50 | 51.15049 | -0.19329 | 205 ft | 24 kts | 258° |
| 2026-05-06 17:50 | 51.15015 | -0.19596 | 205 ft | 25 kts | 259° |
| 2026-05-06 17:50 | 51.14964 | -0.19949 | 205 ft | 22 kts | 258° |
| 2026-05-06 17:50 | 51.14928 | -0.20200 | 205 ft | 24 kts | 257° |
| 2026-05-06 17:51 | 51.14892 | -0.20469 | 207 ft | 26 kts | 258° |
| 2026-05-06 17:51 | 51.14868 | -0.20657 | 214 ft | 27 kts | 258° |
| 2026-05-06 17:51 | 51.14824 | -0.20955 | 214 ft | 28 kts | 257° |
| 2026-05-06 17:51 | 51.14783 | -0.21201 | 208 ft | 22 kts | 251° |
| 2026-05-06 17:52 | 51.14761 | -0.21345 | 205 ft | 0 kts | 256° |
| 2026-05-06 17:55 | 51.14742 | -0.21396 | 212 ft | 9 kts | 221° |
| 2026-05-06 17:56 | 51.14728 | -0.21404 | 205 ft | 0 kts | 188° |
| 2026-05-06 17:56 | 51.14727 | -0.21404 | 205 ft | 1 kts | 188° |
| 2026-05-06 17:57 | 51.14680 | -0.21390 | 205 ft | 5 kts | 150° |
| 2026-05-06 17:57 | 51.14668 | -0.21373 | 214 ft | 0 kts | 135° |
| 2026-05-06 18:00 | 51.14633 | -0.21335 | 208 ft | 10 kts | 161° |
| 2026-05-06 18:01 | 51.14616 | -0.21329 | 208 ft | 0 kts | 167° |
| 2026-05-06 18:03 | 51.14573 | -0.21310 | 208 ft | 19 kts | 158° |
| 2026-05-06 18:04 | 51.14523 | -0.21158 | 206 ft | 5 kts | 79° |
| 2026-05-06 18:04 | 51.14523 | -0.21156 | 206 ft | 0 kts | 78° |
| 2026-05-06 18:05 | 51.14551 | -0.20951 | 210 ft | 54 kts | 77° |
| 2026-05-06 18:05 | 51.14685 | -0.20005 | 216 ft | 119 kts | 77° |
| 2026-05-06 18:05 | 51.14901 | -0.18462 | 325 ft | 156 kts | 75° |
| 2026-05-06 18:05 | 51.15131 | -0.16770 | 1067 ft | 158 kts | 74° |
| 2026-05-06 18:06 | 51.15364 | -0.15049 | 1745 ft | 164 kts | 74° |
| 2026-05-06 18:06 | 51.15626 | -0.13156 | 2075 ft | 186 kts | 75° |
| 2026-05-06 18:06 | 51.15922 | -0.11023 | 2408 ft | 209 kts | 75° |
| 2026-05-06 18:06 | 51.16251 | -0.08651 | 2794 ft | 231 kts | 75° |
| 2026-05-06 18:07 | 51.16614 | -0.06024 | 3327 ft | 252 kts | 75° |
| 2026-05-06 18:07 | 51.16904 | -0.03231 | 4179 ft | 261 kts | 88° |
| 2026-05-06 18:07 | 51.16859 | -0.00344 | 4816 ft | 263 kts | 91° |
| 2026-05-06 18:07 | 51.16799 | 0.02742 | 4968 ft | 297 kts | 91° |
| 2026-05-06 18:08 | 51.16731 | 0.06122 | 5771 ft | 299 kts | 91° |
| 2026-05-06 18:08 | 51.16665 | 0.09334 | 7235 ft | 283 kts | 91° |
| 2026-05-06 18:08 | 51.16602 | 0.12476 | 8248 ft | 284 kts | 90° |
| 2026-05-06 18:08 | 51.16543 | 0.15655 | 9095 ft | 289 kts | 90° |
| 2026-05-06 18:09 | 51.16520 | 0.18876 | 9958 ft | 293 kts | 89° |
| 2026-05-06 18:09 | 51.16528 | 0.22145 | 10727 ft | 298 kts | 88° |
| 2026-05-06 18:09 | 51.16546 | 0.25468 | 11488 ft | 302 kts | 88° |
| 2026-05-06 18:09 | 51.16563 | 0.28838 | 12262 ft | 306 kts | 88° |
| 2026-05-06 18:10 | 51.16578 | 0.32277 | 12813 ft | 320 kts | 88° |
| 2026-05-06 18:10 | 51.16594 | 0.35902 | 12952 ft | 345 kts | 88° |
| 2026-05-06 18:10 | 51.16604 | 0.39878 | 12977 ft | 372 kts | 89° |
| 2026-05-06 18:10 | 51.16608 | 0.44137 | 12976 ft | 396 kts | 89° |
| 2026-05-06 18:11 | 51.16787 | 0.48620 | 12972 ft | 416 kts | 76° |
| 2026-05-06 18:11 | 51.17947 | 0.52904 | 12985 ft | 431 kts | 53° |
| 2026-05-06 18:11 | 51.19861 | 0.56517 | 13870 ft | 422 kts | 47° |
| 2026-05-06 18:11 | 51.21984 | 0.59797 | 14055 ft | 432 kts | 33° |
| 2026-05-06 18:12 | 51.24650 | 0.61957 | 14682 ft | 426 kts | 22° |
| 2026-05-06 18:12 | 51.27335 | 0.63870 | 15605 ft | 418 kts | 22° |
| 2026-05-06 18:12 | 51.29972 | 0.65754 | 16516 ft | 412 kts | 22° |
| 2026-05-06 18:12 | 51.32573 | 0.67616 | 17435 ft | 407 kts | 22° |
| 2026-05-06 18:13 | 51.35170 | 0.69477 | 17625 ft | 421 kts | 22° |
| 2026-05-06 18:13 | 51.37964 | 0.71233 | 17449 ft | 439 kts | 13° |
| 2026-05-06 18:13 | 51.40978 | 0.71959 | 17990 ft | 434 kts | 1° |
| 2026-05-06 18:13 | 51.43887 | 0.72033 | 19179 ft | 415 kts | 358° |
| 2026-05-06 18:14 | 51.46712 | 0.72003 | 20381 ft | 400 kts | 358° |
| 2026-05-06 18:14 | 51.49485 | 0.72115 | 21170 ft | 398 kts | 1° |
| 2026-05-06 18:14 | 51.52261 | 0.72450 | 21767 ft | 401 kts | 4° |
| 2026-05-06 18:14 | 51.55040 | 0.72983 | 22304 ft | 404 kts | 6° |
| 2026-05-06 18:15 | 51.57837 | 0.73649 | 22833 ft | 408 kts | 7° |
| 2026-05-06 18:15 | 51.60655 | 0.74373 | 23333 ft | 412 kts | 7° |
| 2026-05-06 18:15 | 51.63491 | 0.75105 | 23764 ft | 415 kts | 7° |
| 2026-05-06 18:15 | 51.66316 | 0.75813 | 24165 ft | 418 kts | 6° |
| 2026-05-06 18:16 | 51.69199 | 0.76503 | 24575 ft | 420 kts | 6° |
| 2026-05-06 18:16 | 51.72100 | 0.77169 | 24978 ft | 422 kts | 6° |
| 2026-05-06 18:16 | 51.75013 | 0.77822 | 25368 ft | 424 kts | 6° |
| 2026-05-06 18:16 | 51.77947 | 0.78474 | 25744 ft | 427 kts | 6° |
| 2026-05-06 18:17 | 51.80842 | 0.79621 | 26119 ft | 432 kts | 18° |
| 2026-05-06 18:17 | 51.83562 | 0.81764 | 26462 ft | 439 kts | 31° |
| 2026-05-06 18:17 | 51.85966 | 0.84840 | 26797 ft | 443 kts | 40° |
| 2026-05-06 18:17 | 51.88265 | 0.88173 | 27152 ft | 446 kts | 40° |
| 2026-05-06 18:18 | 51.90578 | 0.91536 | 27506 ft | 448 kts | 40° |
| 2026-05-06 18:18 | 51.92878 | 0.94891 | 27844 ft | 450 kts | 40° |
| 2026-05-06 18:18 | 51.95200 | 0.98283 | 28168 ft | 452 kts | 40° |
| 2026-05-06 18:18 | 51.97539 | 1.01699 | 28541 ft | 453 kts | 40° |
| 2026-05-06 18:19 | 51.99888 | 1.05127 | 28877 ft | 455 kts | 40° |
| 2026-05-06 18:19 | 52.02247 | 1.08574 | 29191 ft | 457 kts | 40° |
| 2026-05-06 18:19 | 52.04613 | 1.12032 | 29507 ft | 459 kts | 39° |
| 2026-05-06 18:19 | 52.07130 | 1.15229 | 29746 ft | 461 kts | 35° |
| 2026-05-06 18:20 | 52.09706 | 1.18356 | 30014 ft | 463 kts | 35° |
| 2026-05-06 18:20 | 52.12287 | 1.21512 | 30245 ft | 465 kts | 36° |
| 2026-05-06 18:20 | 52.14834 | 1.24772 | 30460 ft | 467 kts | 37° |
| 2026-05-06 18:20 | 52.17309 | 1.28096 | 30701 ft | 468 kts | 39° |
| 2026-05-06 18:21 | 52.19786 | 1.31522 | 31000 ft | 467 kts | 39° |
| 2026-05-06 18:21 | 52.22250 | 1.34970 | 31297 ft | 466 kts | 39° |
| 2026-05-06 18:21 | 52.24711 | 1.38409 | 31590 ft | 466 kts | 39° |
| 2026-05-06 18:21 | 52.27182 | 1.41829 | 31882 ft | 465 kts | 39° |
| 2026-05-06 18:22 | 52.29659 | 1.45232 | 32165 ft | 466 kts | 38° |
| 2026-05-06 18:22 | 52.32147 | 1.48636 | 32431 ft | 466 kts | 38° |
| 2026-05-06 18:22 | 52.34518 | 1.52140 | 32724 ft | 467 kts | 44° |
| 2026-05-06 18:22 | 52.36789 | 1.55923 | 33024 ft | 466 kts | 44° |
| 2026-05-06 18:23 | 52.39054 | 1.59718 | 33327 ft | 466 kts | 44° |
| 2026-05-06 18:23 | 52.41314 | 1.63520 | 33633 ft | 465 kts | 44° |
| 2026-05-06 18:23 | 52.43565 | 1.67318 | 33935 ft | 465 kts | 44° |
| 2026-05-06 18:23 | 52.45811 | 1.71114 | 34198 ft | 464 kts | 44° |
| 2026-05-06 18:24 | 52.48057 | 1.74915 | 34443 ft | 464 kts | 44° |
| 2026-05-06 18:24 | 52.50304 | 1.78720 | 34675 ft | 464 kts | 45° |
| 2026-05-06 18:24 | 52.52521 | 1.82478 | 34881 ft | 465 kts | 45° |
| 2026-05-06 18:24 | 52.54774 | 1.86303 | 35081 ft | 466 kts | 45° |
| 2026-05-06 18:25 | 52.57027 | 1.90134 | 35293 ft | 466 kts | 45° |
| 2026-05-06 18:25 | 52.59278 | 1.93972 | 35502 ft | 466 kts | 45° |
| 2026-05-06 18:25 | 52.61531 | 1.97816 | 35708 ft | 466 kts | 45° |
| 2026-05-06 18:25 | 52.63783 | 2.01656 | 35909 ft | 466 kts | 45° |
| 2026-05-06 18:26 | 52.66033 | 2.05501 | 36120 ft | 466 kts | 45° |
| 2026-05-06 18:26 | 52.68282 | 2.09356 | 36318 ft | 466 kts | 45° |
| 2026-05-06 18:26 | 52.70500 | 2.13158 | 36509 ft | 466 kts | 45° |
| 2026-05-06 18:26 | 52.72746 | 2.17015 | 36698 ft | 466 kts | 45° |
| 2026-05-06 18:27 | 52.74990 | 2.20882 | 36904 ft | 466 kts | 45° |
| 2026-05-06 18:27 | 52.77236 | 2.24758 | 36994 ft | 469 kts | 45° |
| 2026-05-06 18:27 | 52.81776 | 2.32601 | 37007 ft | 475 kts | 45° |
| 2026-05-06 18:28 | 52.86366 | 2.40563 | 37007 ft | 481 kts | 45° |
| 2026-05-06 18:28 | 52.90962 | 2.48566 | 37005 ft | 484 kts | 45° |
| 2026-05-06 18:29 | 52.95617 | 2.56684 | 37013 ft | 487 kts | 45° |
| 2026-05-06 18:29 | 53.00855 | 2.63710 | 37010 ft | 485 kts | 28° |
| 2026-05-06 18:30 | 53.06879 | 2.68775 | 37000 ft | 486 kts | 25° |
| 2026-05-06 18:30 | 53.12891 | 2.73766 | 37011 ft | 487 kts | 25° |
| 2026-05-06 18:31 | 53.18948 | 2.78827 | 37007 ft | 488 kts | 25° |
| 2026-05-06 18:31 | 53.25020 | 2.83918 | 37012 ft | 489 kts | 25° |
| 2026-05-06 18:32 | 53.31115 | 2.88985 | 37005 ft | 490 kts | 24° |
| 2026-05-06 18:32 | 53.37246 | 2.93793 | 37009 ft | 490 kts | 22° |
| 2026-05-06 18:33 | 53.43453 | 2.98550 | 37012 ft | 491 kts | 22° |
| 2026-05-06 18:33 | 53.49658 | 3.03379 | 37012 ft | 492 kts | 23° |
| 2026-05-06 18:34 | 53.55848 | 3.08295 | 37011 ft | 493 kts | 23° |
| 2026-05-06 18:34 | 53.62009 | 3.13212 | 37021 ft | 493 kts | 24° |
| 2026-05-06 18:35 | 53.68216 | 3.18157 | 37024 ft | 494 kts | 23° |
| 2026-05-06 18:35 | 53.74437 | 3.23116 | 37024 ft | 495 kts | 23° |
| 2026-05-06 18:36 | 53.80669 | 3.28103 | 37023 ft | 496 kts | 23° |
| 2026-05-06 18:36 | 53.86846 | 3.33050 | 37022 ft | 481 kts | 23° |
| 2026-05-06 18:37 | 53.92752 | 3.37801 | 37028 ft | 465 kts | 23° |
| 2026-05-06 18:37 | 53.98520 | 3.42470 | 37025 ft | 454 kts | 23° |
| 2026-05-06 18:38 | 54.02716 | 3.45888 | 37041 ft | 449 kts | 23° |
| 2026-05-06 18:38 | 54.07069 | 3.49427 | 37034 ft | 457 kts | 23° |
| 2026-05-06 18:39 | 54.12837 | 3.54107 | 37036 ft | 467 kts | 23° |
| 2026-05-06 18:40 | 54.21742 | 3.61386 | 37040 ft | 478 kts | 23° |
| 2026-05-06 18:40 | 54.27772 | 3.66343 | 37034 ft | 483 kts | 23° |
| 2026-05-06 18:41 | 54.33855 | 3.71355 | 37036 ft | 486 kts | 23° |
| 2026-05-06 18:41 | 54.39965 | 3.76402 | 37041 ft | 488 kts | 24° |
| 2026-05-06 18:42 | 54.46103 | 3.81495 | 37048 ft | 491 kts | 24° |
| 2026-05-06 18:42 | 54.52258 | 3.86619 | 37037 ft | 492 kts | 24° |
| 2026-05-06 18:43 | 54.58430 | 3.91758 | 37034 ft | 493 kts | 24° |
| 2026-05-06 18:43 | 54.64612 | 3.96951 | 37043 ft | 494 kts | 24° |
| 2026-05-06 18:44 | 54.70845 | 4.02199 | 37036 ft | 496 kts | 24° |
| 2026-05-06 18:44 | 54.76981 | 4.07371 | 37040 ft | 497 kts | 24° |
| 2026-05-06 18:45 | 54.83198 | 4.12648 | 37044 ft | 498 kts | 26° |
| 2026-05-06 18:45 | 54.88776 | 4.19833 | 37033 ft | 503 kts | 45° |
| 2026-05-06 18:46 | 54.93527 | 4.28798 | 37068 ft | 505 kts | 46° |
| 2026-05-06 18:46 | 54.98276 | 4.37827 | 37019 ft | 506 kts | 46° |
| 2026-05-06 18:47 | 55.03033 | 4.46889 | 37033 ft | 507 kts | 46° |
| 2026-05-06 18:47 | 55.07755 | 4.55910 | 37032 ft | 507 kts | 46° |
| 2026-05-06 18:48 | 55.12516 | 4.65028 | 37031 ft | 508 kts | 46° |
| 2026-05-06 18:48 | 55.17266 | 4.74187 | 37032 ft | 509 kts | 46° |
| 2026-05-06 18:49 | 55.22025 | 4.83399 | 37030 ft | 510 kts | 46° |
| 2026-05-06 18:49 | 55.26794 | 4.92642 | 37041 ft | 511 kts | 46° |
| 2026-05-06 18:50 | 55.31420 | 5.02127 | 37043 ft | 513 kts | 54° |
| 2026-05-06 18:50 | 55.35489 | 5.12416 | 37116 ft | 511 kts | 54° |
| 2026-05-06 18:50 | 55.37502 | 5.17496 | 37389 ft | 500 kts | 54° |
| 2026-05-06 18:51 | 55.39472 | 5.22475 | 37163 ft | 492 kts | 54° |
| 2026-05-06 18:51 | 55.43317 | 5.32227 | 37075 ft | 482 kts | 54° |
| 2026-05-06 18:52 | 55.47125 | 5.41944 | 37077 ft | 482 kts | 54° |
| 2026-05-06 18:52 | 55.50930 | 5.51670 | 37076 ft | 482 kts | 54° |
| 2026-05-06 18:53 | 55.54722 | 5.61433 | 37067 ft | 482 kts | 54° |
| 2026-05-06 18:53 | 55.58511 | 5.71221 | 37071 ft | 483 kts | 55° |
| 2026-05-06 18:54 | 55.62300 | 5.81026 | 37073 ft | 483 kts | 55° |
| 2026-05-06 18:54 | 55.66082 | 5.90852 | 37067 ft | 483 kts | 55° |
| 2026-05-06 18:55 | 55.69860 | 6.00718 | 37068 ft | 484 kts | 55° |
| 2026-05-06 18:55 | 55.73603 | 6.10543 | 37062 ft | 484 kts | 55° |
| 2026-05-06 18:56 | 55.77372 | 6.20469 | 37048 ft | 484 kts | 55° |
| 2026-05-06 18:56 | 55.81129 | 6.30412 | 37062 ft | 485 kts | 55° |
| 2026-05-06 18:57 | 55.84882 | 6.40389 | 37066 ft | 485 kts | 56° |
| 2026-05-06 18:57 | 55.88628 | 6.50372 | 37065 ft | 485 kts | 56° |
| 2026-05-06 18:58 | 55.92373 | 6.60376 | 37056 ft | 485 kts | 56° |
| 2026-05-06 18:58 | 55.96108 | 6.70407 | 37054 ft | 485 kts | 56° |
| 2026-05-06 18:59 | 55.99831 | 6.80471 | 37059 ft | 485 kts | 56° |
| 2026-05-06 18:59 | 56.03544 | 6.90531 | 37050 ft | 485 kts | 56° |
| 2026-05-06 19:00 | 56.07227 | 7.00553 | 37065 ft | 485 kts | 56° |
| 2026-05-06 19:00 | 56.10950 | 7.10719 | 37062 ft | 486 kts | 56° |
| 2026-05-06 19:01 | 56.14652 | 7.20867 | 37056 ft | 487 kts | 56° |
| 2026-05-06 19:01 | 56.18323 | 7.30981 | 37054 ft | 487 kts | 56° |
| 2026-05-06 19:02 | 56.22012 | 7.41196 | 37052 ft | 487 kts | 56° |
| 2026-05-06 19:02 | 56.25694 | 7.51414 | 37055 ft | 487 kts | 57° |
| 2026-05-06 19:03 | 56.29361 | 7.61664 | 37052 ft | 487 kts | 57° |
| 2026-05-06 19:03 | 56.33030 | 7.71940 | 37051 ft | 487 kts | 57° |
| 2026-05-06 19:04 | 56.36689 | 7.82233 | 37049 ft | 488 kts | 57° |
| 2026-05-06 19:04 | 56.40342 | 7.92557 | 37043 ft | 488 kts | 57° |
| 2026-05-06 19:05 | 56.43994 | 8.02904 | 37044 ft | 488 kts | 57° |
| 2026-05-06 19:05 | 56.47609 | 8.13203 | 37033 ft | 489 kts | 57° |
| 2026-05-06 19:06 | 56.51239 | 8.23612 | 37035 ft | 489 kts | 57° |
| 2026-05-06 19:06 | 56.54863 | 8.34032 | 37035 ft | 489 kts | 57° |
| 2026-05-06 19:07 | 56.58489 | 8.44498 | 37028 ft | 490 kts | 57° |
| 2026-05-06 19:07 | 56.62107 | 8.54987 | 37029 ft | 490 kts | 57° |
| 2026-05-06 19:08 | 56.65137 | 8.63790 | 37021 ft | 490 kts | 57° |
| 2026-05-06 19:08 | 56.68718 | 8.74256 | 37020 ft | 490 kts | 58° |
| 2026-05-06 19:09 | 56.72303 | 8.84809 | 37022 ft | 490 kts | 58° |
| 2026-05-06 19:09 | 56.75891 | 8.95392 | 37017 ft | 490 kts | 58° |
| 2026-05-06 19:10 | 56.79468 | 9.05972 | 37029 ft | 491 kts | 58° |
| 2026-05-06 19:10 | 56.83051 | 9.16612 | 37016 ft | 492 kts | 58° |
| 2026-05-06 19:11 | 56.86618 | 9.27272 | 37014 ft | 492 kts | 58° |
| 2026-05-06 19:11 | 56.90168 | 9.37972 | 37017 ft | 492 kts | 58° |
| 2026-05-06 19:12 | 56.93721 | 9.48689 | 37018 ft | 492 kts | 58° |
| 2026-05-06 19:12 | 56.97265 | 9.59390 | 37027 ft | 491 kts | 59° |
| 2026-05-06 19:13 | 57.00797 | 9.70111 | 37055 ft | 491 kts | 59° |
| 2026-05-06 19:13 | 57.04322 | 9.80899 | 37033 ft | 493 kts | 59° |
| 2026-05-06 19:14 | 57.07838 | 9.91720 | 36825 ft | 494 kts | 59° |
| 2026-05-06 19:14 | 57.09608 | 9.97182 | 35712 ft | 502 kts | 59° |
| 2026-05-06 19:14 | 57.11185 | 10.02945 | 34744 ft | 505 kts | 68° |
| 2026-05-06 19:14 | 57.12566 | 10.08827 | 34431 ft | 499 kts | 67° |
| 2026-05-06 19:15 | 57.13949 | 10.14668 | 34179 ft | 496 kts | 67° |
| 2026-05-06 19:15 | 57.15330 | 10.20483 | 33934 ft | 495 kts | 67° |
| 2026-05-06 19:15 | 57.16693 | 10.26222 | 33651 ft | 496 kts | 67° |
| 2026-05-06 19:15 | 57.18075 | 10.32048 | 33227 ft | 496 kts | 67° |
| 2026-05-06 19:16 | 57.19459 | 10.37911 | 31908 ft | 505 kts | 68° |
| 2026-05-06 19:16 | 57.20865 | 10.43893 | 30878 ft | 508 kts | 68° |
| 2026-05-06 19:16 | 57.22259 | 10.49838 | 30261 ft | 502 kts | 68° |
| 2026-05-06 19:16 | 57.23640 | 10.55751 | 29406 ft | 501 kts | 68° |
| 2026-05-06 19:17 | 57.25005 | 10.61622 | 28705 ft | 495 kts | 68° |
| 2026-05-06 19:17 | 57.26352 | 10.67441 | 27980 ft | 490 kts | 68° |
| 2026-05-06 19:17 | 57.27681 | 10.73208 | 27267 ft | 485 kts | 68° |
| 2026-05-06 19:17 | 57.28995 | 10.78928 | 26548 ft | 481 kts | 68° |
| 2026-05-06 19:18 | 57.30294 | 10.84587 | 25877 ft | 476 kts | 68° |
| 2026-05-06 19:18 | 57.31583 | 10.90203 | 25192 ft | 473 kts | 67° |
| 2026-05-06 19:18 | 57.32856 | 10.95788 | 24522 ft | 469 kts | 67° |
| 2026-05-06 19:18 | 57.34112 | 11.01310 | 23933 ft | 464 kts | 67° |
| 2026-05-06 19:19 | 57.35344 | 11.06730 | 23314 ft | 459 kts | 67° |
| 2026-05-06 19:19 | 57.36571 | 11.12143 | 22751 ft | 451 kts | 67° |
| 2026-05-06 19:19 | 57.37773 | 11.17464 | 22224 ft | 444 kts | 67° |
| 2026-05-06 19:19 | 57.38956 | 11.22710 | 21729 ft | 438 kts | 67° |
| 2026-05-06 19:20 | 57.40121 | 11.27885 | 21234 ft | 432 kts | 67° |
| 2026-05-06 19:20 | 57.41262 | 11.32994 | 20742 ft | 426 kts | 67° |
| 2026-05-06 19:20 | 57.42389 | 11.38055 | 20253 ft | 422 kts | 67° |
| 2026-05-06 19:20 | 57.43505 | 11.43067 | 19757 ft | 418 kts | 66° |
| 2026-05-06 19:21 | 57.44611 | 11.48036 | 19249 ft | 414 kts | 66° |
| 2026-05-06 19:21 | 57.45711 | 11.52976 | 18735 ft | 411 kts | 66° |
| 2026-05-06 19:21 | 57.46798 | 11.57867 | 18208 ft | 408 kts | 66° |
| 2026-05-06 19:21 | 57.47877 | 11.62730 | 17641 ft | 405 kts | 66° |
| 2026-05-06 19:22 | 57.48939 | 11.67540 | 17121 ft | 400 kts | 66° |
| 2026-05-06 19:22 | 57.49987 | 11.72314 | 16599 ft | 396 kts | 67° |
| 2026-05-06 19:22 | 57.51022 | 11.77036 | 16074 ft | 392 kts | 67° |
| 2026-05-06 19:22 | 57.52043 | 11.81711 | 15567 ft | 388 kts | 67° |
| 2026-05-06 19:23 | 57.53040 | 11.86285 | 15058 ft | 385 kts | 67° |
| 2026-05-06 19:23 | 57.54166 | 11.90770 | 14546 ft | 380 kts | 57° |
| 2026-05-06 19:23 | 57.55761 | 11.94636 | 14049 ft | 375 kts | 44° |
| 2026-05-06 19:23 | 57.57756 | 11.97679 | 13513 ft | 369 kts | 31° |
| 2026-05-06 19:24 | 57.60030 | 11.99761 | 13046 ft | 360 kts | 17° |
| 2026-05-06 19:24 | 57.62399 | 12.00967 | 12946 ft | 348 kts | 12° |
| 2026-05-06 19:24 | 57.64742 | 12.02082 | 12969 ft | 347 kts | 12° |
| 2026-05-06 19:24 | 57.67076 | 12.03214 | 12974 ft | 347 kts | 12° |
| 2026-05-06 19:25 | 57.69419 | 12.04358 | 12974 ft | 347 kts | 12° |
| 2026-05-06 19:25 | 57.71754 | 12.05498 | 12972 ft | 346 kts | 12° |
| 2026-05-06 19:25 | 57.74027 | 12.06611 | 12970 ft | 328 kts | 12° |
| 2026-05-06 19:25 | 57.76182 | 12.07671 | 12972 ft | 312 kts | 12° |
| 2026-05-06 19:26 | 57.78254 | 12.08695 | 12973 ft | 305 kts | 12° |
| 2026-05-06 19:26 | 57.80297 | 12.09700 | 12972 ft | 304 kts | 12° |
| 2026-05-06 19:26 | 57.82343 | 12.10697 | 12907 ft | 303 kts | 12° |
| 2026-05-06 19:26 | 57.84392 | 12.11689 | 12428 ft | 305 kts | 12° |
| 2026-05-06 19:27 | 57.86442 | 12.12681 | 12019 ft | 304 kts | 12° |
| 2026-05-06 19:27 | 57.88469 | 12.13668 | 11376 ft | 300 kts | 13° |
| 2026-05-06 19:27 | 57.90480 | 12.14691 | 10543 ft | 301 kts | 18° |
| 2026-05-06 19:27 | 57.92404 | 12.16310 | 9884 ft | 300 kts | 25° |
| 2026-05-06 19:28 | 57.94281 | 12.18055 | 9109 ft | 298 kts | 25° |
| 2026-05-06 19:28 | 57.96122 | 12.19767 | 8566 ft | 293 kts | 25° |
| 2026-05-06 19:28 | 57.97948 | 12.21450 | 8045 ft | 293 kts | 25° |
| 2026-05-06 19:28 | 57.99770 | 12.23198 | 7525 ft | 295 kts | 33° |
| 2026-05-06 19:29 | 58.01207 | 12.25914 | 6985 ft | 294 kts | 61° |
| 2026-05-06 19:29 | 58.01838 | 12.29430 | 6604 ft | 285 kts | 89° |
| 2026-05-06 19:29 | 58.01589 | 12.33032 | 6214 ft | 274 kts | 111° |
| 2026-05-06 19:29 | 58.00906 | 12.36363 | 5818 ft | 270 kts | 115° |
| 2026-05-06 19:30 | 58.00172 | 12.39607 | 5421 ft | 268 kts | 115° |
| 2026-05-06 19:30 | 57.99426 | 12.42814 | 5063 ft | 265 kts | 115° |
| 2026-05-06 19:30 | 57.98677 | 12.45982 | 5022 ft | 265 kts | 115° |
| 2026-05-06 19:30 | 57.97716 | 12.48914 | 5016 ft | 263 kts | 137° |
| 2026-05-06 19:31 | 57.96174 | 12.50658 | 5022 ft | 260 kts | 165° |
| 2026-05-06 19:31 | 57.94449 | 12.50918 | 5022 ft | 241 kts | 189° |
| 2026-05-06 19:31 | 57.91485 | 12.48905 | 4784 ft | 216 kts | 202° |
| 2026-05-06 19:32 | 57.90112 | 12.47840 | 4654 ft | 212 kts | 202° |
| 2026-05-06 19:32 | 57.88750 | 12.46782 | 4520 ft | 211 kts | 202° |
| 2026-05-06 19:32 | 57.87391 | 12.45725 | 4386 ft | 211 kts | 202° |
| 2026-05-06 19:32 | 57.86034 | 12.44672 | 4249 ft | 210 kts | 203° |
| 2026-05-06 19:33 | 57.84688 | 12.43631 | 4116 ft | 209 kts | 203° |
| 2026-05-06 19:33 | 57.83345 | 12.42596 | 3925 ft | 209 kts | 203° |
| 2026-05-06 19:33 | 57.82004 | 12.41564 | 3662 ft | 208 kts | 203° |
| 2026-05-06 19:33 | 57.80656 | 12.40528 | 3379 ft | 210 kts | 203° |
| 2026-05-06 19:34 | 57.79299 | 12.39504 | 3099 ft | 210 kts | 201° |
| 2026-05-06 19:34 | 57.77954 | 12.38542 | 2863 ft | 204 kts | 205° |
| 2026-05-06 19:34 | 57.76691 | 12.37472 | 2565 ft | 193 kts | 207° |
| 2026-05-06 19:34 | 57.75522 | 12.36418 | 2299 ft | 179 kts | 207° |
| 2026-05-06 19:35 | 57.74464 | 12.35453 | 2079 ft | 164 kts | 207° |
| 2026-05-06 19:35 | 57.73488 | 12.34562 | 1858 ft | 150 kts | 208° |
| 2026-05-06 19:35 | 57.72558 | 12.33710 | 1657 ft | 145 kts | 208° |
| 2026-05-06 19:35 | 57.71660 | 12.32889 | 1450 ft | 142 kts | 208° |
| 2026-05-06 19:36 | 57.70772 | 12.32077 | 1254 ft | 141 kts | 208° |
| 2026-05-06 19:36 | 57.69891 | 12.31278 | 1034 ft | 141 kts | 208° |
| 2026-05-06 19:36 | 57.69026 | 12.30492 | 824 ft | 138 kts | 207° |
| 2026-05-06 19:36 | 57.68171 | 12.29707 | 682 ft | 138 kts | 208° |
| 2026-05-06 19:37 | 57.67332 | 12.28945 | 533 ft | 127 kts | 208° |
| 2026-05-06 19:37 | 57.66738 | 12.28385 | 524 ft | 56 kts | 204° |
| 2026-05-06 19:37 | 57.66456 | 12.28140 | 522 ft | 44 kts | 207° |
| 2026-05-06 19:37 | 57.66298 | 12.27992 | 518 ft | 30 kts | 206° |
| 2026-05-06 19:38 | 57.66126 | 12.28017 | 517 ft | 15 kts | 121° |
| 2026-05-06 19:38 | 57.66117 | 12.28053 | 518 ft | 0 kts | 114° |
| 2026-05-06 19:39 | 57.66105 | 12.28105 | 518 ft | 9 kts | 109° |
| 2026-05-06 19:39 | 57.66132 | 12.28192 | 518 ft | 7 kts | 43° |
| 2026-05-06 19:39 | 57.66169 | 12.28229 | 519 ft | 5 kts | 25° |
| 2026-05-06 19:39 | 57.66230 | 12.28283 | 520 ft | 11 kts | 25° |
| 2026-05-06 19:40 | 57.66292 | 12.28338 | 520 ft | 9 kts | 25° |
| 2026-05-06 19:40 | 57.66370 | 12.28406 | 521 ft | 18 kts | 26° |
| 2026-05-06 19:40 | 57.66487 | 12.28511 | 522 ft | 20 kts | 26° |
| 2026-05-06 19:40 | 57.66614 | 12.28626 | 524 ft | 21 kts | 25° |
| 2026-05-06 19:41 | 57.66659 | 12.28778 | 524 ft | 15 kts | 122° |
| 2026-05-06 19:41 | 57.66617 | 12.28939 | 524 ft | 13 kts | 115° |
| 2026-05-06 19:41 | 57.66624 | 12.29027 | 525 ft | 6 kts | 36° |
| 2026-05-06 19:41 | 57.66676 | 12.29077 | 525 ft | 12 kts | 26° |
| 2026-05-06 19:42 | 57.66745 | 12.29146 | 526 ft | 9 kts | 46° |
| 2026-05-06 19:42 | 57.66737 | 12.29233 | 526 ft | 7 kts | 114° |
| 2026-05-06 19:42 | 57.66725 | 12.29282 | 526 ft | 0 kts | 115° |